Time;durP1;ratioP1;P1;durP2;ratioP2;P2;SDS_P1;SDS_P2;PMS_P1;PMS_P2;Temp;Humidity;BMP_temperature;BMP_pressure;BME280_temperature;BME280_humidity;BME280_pressure;Samples;Min_cycle;Max_cycle;Signal;HPM_P1;HPM_P2
2023/08/30 00:01:16;;;;;;;19.17;13.10;;;14.40;98.50;;;;;;5051801;28;21021;-76
2023/08/30 00:03:42;;;;;;;20.25;12.95;;;14.50;96.70;;;;;;5051809;28;20397;-75
2023/08/30 00:06:07;;;;;;;20.02;13.35;;;14.60;95.20;;;;;;5052088;28;20393;-75
2023/08/30 00:08:33;;;;;;;21.13;12.90;;;14.70;93.40;;;;;;5052097;28;20393;-75
2023/08/30 00:10:59;;;;;;;19.73;12.03;;;14.60;93.80;;;;;;5051954;28;20432;-75
2023/08/30 00:13:26;;;;;;;17.03;12.20;;;14.60;94.00;;;;;;5052201;28;20397;-75
2023/08/30 00:15:51;;;;;;;19.40;14.02;;;14.50;94.60;;;;;;5053397;28;20377;-75
2023/08/30 00:18:18;;;;;;;16.40;12.63;;;14.50;95.50;;;;;;5054822;28;20770;-75
2023/08/30 00:20:44;;;;;;;19.42;13.88;;;14.60;96.10;;;;;;5058441;28;20381;-75
2023/08/30 00:23:10;;;;;;;20.97;13.73;;;14.60;95.60;;;;;;5040304;28;20384;-75
2023/08/30 00:25:36;;;;;;;18.90;13.07;;;14.60;95.10;;;;;;5059284;28;20930;-74
2023/08/30 00:28:01;;;;;;;18.50;13.43;;;14.60;95.00;;;;;;5059075;28;20878;-74
2023/08/30 00:30:27;;;;;;;24.63;14.53;;;14.60;95.40;;;;;;5058521;28;20468;-75
2023/08/30 00:32:52;;;;;;;19.20;14.20;;;14.70;95.20;;;;;;5061100;28;20489;-75
2023/08/30 00:35:18;;;;;;;25.63;15.20;;;14.70;95.30;;;;;;5062289;28;20401;-75
2023/08/30 00:37:43;;;;;;;22.73;14.83;;;14.80;94.10;;;;;;5061977;28;20385;-75
2023/08/30 00:40:09;;;;;;;20.20;16.30;;;14.80;93.20;;;;;;5061893;28;20473;-76
2023/08/30 00:42:36;;;;;;;22.70;16.85;;;14.80;94.00;;;;;;5060543;28;20392;-74
2023/08/30 00:45:02;;;;;;;23.63;16.90;;;14.70;94.40;;;;;;5058511;28;20735;-74
2023/08/30 00:47:28;;;;;;;24.45;16.60;;;14.60;96.30;;;;;;5058426;28;20454;-74
2023/08/30 00:49:54;;;;;;;20.92;16.60;;;14.60;95.80;;;;;;5061533;28;20385;-74
2023/08/30 00:52:19;;;;;;;25.75;17.73;;;14.40;97.00;;;;;;5061670;28;20439;-74
2023/08/30 00:54:45;;;;;;;26.30;18.58;;;14.40;99.00;;;;;;5060383;28;20472;-75
2023/08/30 00:57:10;;;;;;;24.85;18.92;;;14.30;99.90;;;;;;5071721;28;20413;-75
2023/08/30 00:59:36;;;;;;;28.87;20.00;;;14.40;99.90;;;;;;5070955;28;20747;-74
2023/08/30 01:02:04;;;;;;;28.77;20.15;;;14.40;99.90;;;;;;5052167;28;20389;-74
2023/08/30 01:04:29;;;;;;;25.58;19.90;;;14.30;99.90;;;;;;5065132;28;20470;-74
2023/08/30 01:06:55;;;;;;;29.95;22.25;;;14.20;99.90;;;;;;5060771;28;20388;-76
2023/08/30 01:09:21;;;;;;;30.10;21.58;;;14.20;99.90;;;;;;5042590;28;20742;-75
2023/08/30 01:12:09;;;;;;;28.55;21.13;;;14.20;99.90;;;;;;5060166;28;20889;-75
2023/08/30 01:14:43;;;;;;;33.60;23.48;;;14.10;99.90;;;;;;5058798;28;20449;-76
2023/08/30 01:17:14;;;;;;;35.33;23.90;;;14.10;99.90;;;;;;5058161;28;20382;-76
2023/08/30 01:20:00;;;;;;;36.53;25.30;;;14.10;99.90;;;;;;5058711;28;20373;-75
2023/08/30 01:22:42;;;;;;;31.55;24.27;;;14.10;99.90;;;;;;5058608;28;20396;-77
2023/08/30 01:25:16;;;;;;;35.85;25.50;;;14.00;99.90;;;;;;5058417;28;20861;-76
2023/08/30 01:27:47;;;;;;;35.97;25.55;;;14.00;99.90;;;;;;5058593;28;20750;-76
2023/08/30 01:30:13;;;;;;;41.03;26.15;;;13.90;99.90;;;;;;5055249;28;20439;-74
2023/08/30 01:32:40;;;;;;;35.95;25.05;;;13.90;99.90;;;;;;5055373;28;20905;-75
2023/08/30 01:35:07;;;;;;;38.92;27.42;;;13.90;99.90;;;;;;5055043;28;20389;-75
2023/08/30 01:37:33;;;;;;;37.45;27.05;;;13.90;99.90;;;;;;5055107;28;20849;-75
2023/08/30 01:39:59;;;;;;;38.35;25.92;;;13.90;99.90;;;;;;5055749;28;20820;-75
2023/08/30 01:42:26;;;;;;;39.17;27.08;;;13.70;99.90;;;;;;5055825;28;20408;-76
2023/08/30 01:44:57;;;;;;;44.97;28.02;;;13.70;99.90;;;;;;5057217;28;20941;-76
2023/08/30 01:47:26;;;;;;;39.72;27.95;;;13.60;99.90;;;;;;5054962;28;20385;-75
2023/08/30 01:49:53;;;;;;;39.88;27.92;;;13.50;99.90;;;;;;5054147;28;20727;-75
2023/08/30 01:52:20;;;;;;;41.15;28.02;;;13.60;99.90;;;;;;5053808;28;20436;-74
2023/08/30 01:54:47;;;;;;;41.67;27.17;;;13.50;99.90;;;;;;5054200;28;20382;-75
2023/08/30 01:57:13;;;;;;;38.60;27.38;;;13.40;99.90;;;;;;5053950;28;20484;-75
2023/08/30 01:59:38;;;;;;;39.00;27.55;;;13.50;99.90;;;;;;5054145;28;20415;-75
2023/08/30 02:02:04;;;;;;;38.30;25.77;;;13.80;99.90;;;;;;5054288;28;20447;-75
2023/08/30 02:04:31;;;;;;;41.83;28.17;;;13.70;99.90;;;;;;5053856;28;20385;-74
2023/08/30 02:07:08;;;;;;;44.83;28.35;;;13.60;99.90;;;;;;5054853;28;20377;-78
2023/08/30 02:09:45;;;;;;;43.28;28.67;;;13.60;99.90;;;;;;5054930;28;20385;-76
2023/08/30 02:12:15;;;;;;;43.20;28.80;;;13.60;99.90;;;;;;5054257;28;20458;-75
2023/08/30 02:14:48;;;;;;;41.63;31.15;;;13.60;99.90;;;;;;5053918;28;20412;-76
2023/08/30 02:17:18;;;;;;;43.60;30.50;;;13.60;99.90;;;;;;5053511;28;20381;-75
2023/08/30 02:19:45;;;;;;;48.90;30.92;;;13.60;99.90;;;;;;5053140;28;20754;-76
2023/08/30 02:22:11;;;;;;;47.42;31.60;;;13.60;99.90;;;;;;5052478;28;20889;-75
2023/08/30 02:24:37;;;;;;;50.10;31.52;;;13.60;99.90;;;;;;5052527;28;20477;-75
2023/08/30 02:27:02;;;;;;;48.03;32.07;;;13.70;99.90;;;;;;5052563;28;20932;-74
2023/08/30 02:29:30;;;;;;;53.83;33.45;;;13.70;99.90;;;;;;5051632;28;21190;-74
2023/08/30 02:31:55;;;;;;;49.58;32.75;;;13.80;99.90;;;;;;5051944;28;20405;-75
2023/08/30 02:34:21;;;;;;;54.47;33.72;;;13.70;99.90;;;;;;5052207;28;20381;-74
2023/08/30 02:36:47;;;;;;;58.85;35.17;;;13.60;99.90;;;;;;5052044;28;20378;-74
2023/08/30 02:39:14;;;;;;;53.00;35.38;;;13.60;99.90;;;;;;5052129;28;20735;-74
2023/08/30 02:41:40;;;;;;;50.70;35.05;;;13.60;99.90;;;;;;5051436;28;20440;-74
2023/08/30 02:44:07;;;;;;;55.67;34.65;;;13.50;99.90;;;;;;5051786;28;20417;-75
2023/08/30 02:46:33;;;;;;;58.35;36.00;;;13.50;99.90;;;;;;5052156;28;20381;-74
2023/08/30 02:48:59;;;;;;;55.97;36.63;;;13.50;99.90;;;;;;5052309;28;20432;-75
2023/08/30 02:51:24;;;;;;;47.38;31.95;;;13.80;99.90;;;;;;5052679;28;20401;-73
2023/08/30 02:53:50;;;;;;;52.92;33.15;;;13.90;99.90;;;;;;5052889;28;20396;-75
2023/08/30 02:56:15;;;;;;;56.83;35.60;;;13.70;99.90;;;;;;5051809;28;20370;-75
2023/08/30 02:58:41;;;;;;;55.67;35.77;;;13.60;99.90;;;;;;5051865;28;20892;-75
2023/08/30 03:01:07;;;;;;;57.83;35.33;;;13.40;99.90;;;;;;5051842;28;20464;-75
2023/08/30 03:03:32;;;;;;;59.60;37.10;;;13.30;99.90;;;;;;5050420;28;20393;-75
2023/08/30 03:05:58;;;;;;;55.17;36.05;;;13.30;99.90;;;;;;5038645;28;20874;-77
2023/08/30 03:08:23;;;;;;;64.25;37.20;;;13.30;99.90;;;;;;5051120;28;20397;-75
2023/08/30 03:10:49;;;;;;;57.97;37.03;;;13.20;99.90;;;;;;5044505;28;20387;-75
2023/08/30 03:13:14;;;;;;;55.37;35.77;;;13.20;99.90;;;;;;5032302;28;20445;-77
2023/08/30 03:15:40;;;;;;;53.17;36.57;;;13.30;99.90;;;;;;5047543;28;20404;-75
2023/08/30 03:18:05;;;;;;;55.63;34.67;;;13.30;99.90;;;;;;5054015;28;20461;-77
2023/08/30 03:20:31;;;;;;;56.90;36.90;;;13.30;99.90;;;;;;5055866;28;20393;-75
2023/08/30 03:23:00;;;;;;;56.63;36.00;;;13.30;99.90;;;;;;5052932;28;20417;-78
2023/08/30 03:25:29;;;;;;;54.28;33.95;;;13.20;99.90;;;;;;5054851;28;20381;-77
2023/08/30 03:27:55;;;;;;;54.42;35.10;;;13.10;99.90;;;;;;5038889;28;20424;-77
2023/08/30 03:30:20;;;;;;;58.38;36.08;;;13.10;99.90;;;;;;5057054;28;20750;-78
2023/08/30 03:32:46;;;;;;;53.53;35.88;;;13.20;99.90;;;;;;5053443;28;20409;-77
2023/08/30 03:35:11;;;;;;;48.97;33.97;;;13.30;99.90;;;;;;5055658;28;20393;-78
2023/08/30 03:37:37;;;;;;;57.07;35.13;;;13.20;99.90;;;;;;5055564;28;20384;-78
2023/08/30 03:40:04;;;;;;;52.80;34.23;;;13.20;99.90;;;;;;5055899;28;20409;-78
2023/08/30 03:42:30;;;;;;;53.92;36.42;;;13.10;99.90;;;;;;5055512;28;20381;-77
2023/08/30 03:44:55;;;;;;;56.47;36.22;;;13.10;99.90;;;;;;5055856;28;20450;-78
2023/08/30 03:47:21;;;;;;;51.80;34.70;;;13.00;99.90;;;;;;5055863;28;20393;-78
2023/08/30 03:49:47;;;;;;;52.73;36.20;;;13.00;99.90;;;;;;5056450;28;20874;-78
2023/08/30 03:52:13;;;;;;;47.58;33.20;;;13.30;99.90;;;;;;5058037;28;20435;-77
2023/08/30 03:54:38;;;;;;;50.08;32.97;;;13.30;99.90;;;;;;5073282;28;20463;-77
2023/08/30 03:57:04;;;;;;;50.87;32.80;;;13.20;99.90;;;;;;5073020;28;20428;-77
2023/08/30 03:59:30;;;;;;;52.00;35.23;;;13.10;99.90;;;;;;5070674;28;20447;-78
2023/08/30 04:01:55;;;;;;;51.90;33.00;;;13.10;99.90;;;;;;5059440;28;20588;-78
2023/08/30 04:04:21;;;;;;;49.67;33.30;;;13.00;99.90;;;;;;5056147;28;20451;-78
2023/08/30 04:06:46;;;;;;;51.83;34.42;;;13.00;99.90;;;;;;5054919;28;20385;-76
2023/08/30 04:09:12;;;;;;;55.42;34.47;;;13.00;99.90;;;;;;5056507;28;20385;-77
2023/08/30 04:11:37;;;;;;;57.70;34.47;;;13.00;99.90;;;;;;5059607;28;20401;-77
2023/08/30 04:14:03;;;;;;;56.93;35.27;;;13.10;99.90;;;;;;5057825;28;20404;-77
2023/08/30 04:16:29;;;;;;;50.60;33.85;;;13.10;99.90;;;;;;5060018;28;20739;-79
2023/08/30 04:18:55;;;;;;;56.50;34.60;;;13.00;99.90;;;;;;5060164;28;20464;-78
2023/08/30 04:21:20;;;;;;;51.63;34.30;;;13.00;99.90;;;;;;5054771;28;20420;-78
2023/08/30 04:23:46;;;;;;;55.95;35.25;;;13.00;99.90;;;;;;5056751;28;20385;-77
2023/08/30 04:26:11;;;;;;;48.58;32.65;;;13.10;99.90;;;;;;5060275;28;20435;-76
2023/08/30 04:28:37;;;;;;;51.43;33.90;;;13.20;99.90;;;;;;5054469;28;20382;-78
2023/08/30 04:31:02;;;;;;;51.10;34.80;;;13.20;99.90;;;;;;5055449;28;20389;-78
2023/08/30 04:33:28;;;;;;;48.47;33.23;;;13.20;99.90;;;;;;5056585;28;20373;-78
2023/08/30 04:35:55;;;;;;;49.45;32.95;;;13.30;99.90;;;;;;5055759;28;20394;-78
2023/08/30 04:38:21;;;;;;;53.72;32.58;;;13.30;99.90;;;;;;5055066;28;20740;-77
2023/08/30 04:40:48;;;;;;;48.08;33.33;;;13.40;99.90;;;;;;5053041;28;20870;-78
2023/08/30 04:43:14;;;;;;;53.53;33.70;;;13.50;99.90;;;;;;5051787;28;20403;-78
2023/08/30 04:45:40;;;;;;;51.22;33.70;;;13.50;99.90;;;;;;5036330;28;20397;-77
2023/08/30 04:48:06;;;;;;;50.47;34.08;;;13.60;99.90;;;;;;5034577;28;20401;-77
2023/08/30 04:50:31;;;;;;;50.92;33.97;;;13.60;99.90;;;;;;5053991;28;20392;-77
2023/08/30 04:52:57;;;;;;;52.57;33.30;;;13.70;99.90;;;;;;5053000;28;20405;-78
2023/08/30 04:55:28;;;;;;;53.08;33.78;;;13.70;99.90;;;;;;5053947;28;20889;-79
2023/08/30 04:57:54;;;;;;;56.30;35.10;;;13.70;99.90;;;;;;5056777;28;20388;-78
2023/08/30 05:00:19;;;;;;;52.83;35.33;;;13.70;99.90;;;;;;5053448;28;20381;-77
2023/08/30 05:02:46;;;;;;;57.30;35.20;;;13.70;99.90;;;;;;5062663;28;20407;-77
2023/08/30 05:05:12;;;;;;;52.85;33.67;;;13.80;99.90;;;;;;5058244;28;20393;-77
2023/08/30 05:07:38;;;;;;;47.97;32.60;;;13.80;99.90;;;;;;5064167;28;20404;-80
2023/08/30 05:10:04;;;;;;;54.80;35.28;;;13.80;99.90;;;;;;5070154;28;20417;-78
2023/08/30 05:12:30;;;;;;;54.57;33.77;;;13.80;99.90;;;;;;5075191;28;20397;-76
2023/08/30 05:14:56;;;;;;;51.30;34.60;;;13.80;99.90;;;;;;5072159;28;20377;-77
2023/08/30 05:17:21;;;;;;;53.63;34.15;;;13.80;99.90;;;;;;5075379;28;20381;-77
2023/08/30 05:19:47;;;;;;;51.00;34.20;;;13.80;99.90;;;;;;5075611;28;20404;-78
2023/08/30 05:22:13;;;;;;;48.25;32.95;;;13.90;99.90;;;;;;5070293;28;20434;-78
2023/08/30 05:24:38;;;;;;;52.88;34.60;;;14.00;99.90;;;;;;5058932;28;20397;-77
2023/08/30 05:27:04;;;;;;;54.50;34.70;;;14.00;99.90;;;;;;5058729;28;20407;-77
2023/08/30 05:29:30;;;;;;;54.87;34.53;;;14.00;99.90;;;;;;5057677;28;20393;-79
2023/08/30 05:31:55;;;;;;;53.67;34.70;;;14.00;99.90;;;;;;5040040;28;20834;-77
2023/08/30 05:34:21;;;;;;;48.07;33.10;;;14.00;99.90;;;;;;5057858;28;20459;-77
2023/08/30 05:36:46;;;;;;;53.65;35.95;;;14.00;99.90;;;;;;5041378;28;20389;-78
2023/08/30 05:39:12;;;;;;;51.83;34.47;;;14.10;99.90;;;;;;5057606;28;20468;-77
2023/08/30 05:41:37;;;;;;;53.50;34.87;;;14.10;99.90;;;;;;5063874;28;20388;-79
2023/08/30 05:44:04;;;;;;;51.07;33.97;;;14.20;99.90;;;;;;5067102;28;20394;-77
2023/08/30 05:46:29;;;;;;;50.50;33.05;;;14.30;99.90;;;;;;5068066;28;20396;-77
2023/08/30 05:48:55;;;;;;;50.77;35.00;;;14.20;99.70;;;;;;5066023;28;20385;-78
2023/08/30 05:51:20;;;;;;;52.27;33.47;;;14.20;99.60;;;;;;5061209;28;20460;-78
2023/08/30 05:53:46;;;;;;;52.70;34.67;;;14.30;99.90;;;;;;5066782;28;20405;-77
2023/08/30 05:56:11;;;;;;;49.22;33.50;;;14.30;99.00;;;;;;5063356;28;20743;-77
2023/08/30 05:58:38;;;;;;;48.50;33.17;;;14.30;97.70;;;;;;5068091;28;20384;-77
2023/08/30 06:01:06;;;;;;;49.80;33.20;;;14.30;97.40;;;;;;5067686;28;20384;-79
2023/08/30 06:03:31;;;;;;;48.65;32.15;;;14.40;96.30;;;;;;5038933;28;20385;-78
2023/08/30 06:05:57;;;;;;;50.45;31.67;;;14.40;95.50;;;;;;5057953;28;20400;-76
2023/08/30 06:08:23;;;;;;;47.88;32.28;;;14.40;95.70;;;;;;5039090;28;20386;-78
2023/08/30 06:10:49;;;;;;;44.65;30.92;;;14.50;95.30;;;;;;5058050;28;20401;-78
2023/08/30 06:13:14;;;;;;;40.80;30.02;;;14.60;92.80;;;;;;5055803;28;20393;-77
2023/08/30 06:15:40;;;;;;;45.10;31.10;;;14.70;91.00;;;;;;5055367;28;20389;-78
2023/08/30 06:18:05;;;;;;;43.97;30.37;;;14.70;90.40;;;;;;5056011;28;20389;-78
2023/08/30 06:20:31;;;;;;;39.77;28.53;;;14.90;88.50;;;;;;5058050;28;20474;-78
2023/08/30 06:22:58;;;;;;;41.08;27.55;;;15.10;85.90;;;;;;5056962;28;20811;-78
2023/08/30 06:25:24;;;;;;;38.20;27.40;;;15.20;82.60;;;;;;5061161;28;20480;-78
2023/08/30 06:27:58;;;;;;;39.47;26.23;;;15.30;79.70;;;;;;5058945;28;20417;-79
2023/08/30 06:30:25;;;;;;;33.50;25.83;;;15.50;79.00;;;;;;5055004;28;20389;-77
2023/08/30 06:32:51;;;;;;;31.05;23.60;;;15.60;78.60;;;;;;5054120;28;20405;-77
2023/08/30 06:35:16;;;;;;;33.45;23.65;;;15.70;74.90;;;;;;5058511;28;20810;-77
2023/08/30 06:37:42;;;;;;;30.27;22.98;;;15.80;72.60;;;;;;5058358;28;20446;-77
2023/08/30 06:40:08;;;;;;;30.70;23.50;;;15.90;72.30;;;;;;5041075;28;20390;-78
2023/08/30 06:42:34;;;;;;;34.85;23.77;;;15.90;72.10;;;;;;5060617;28;20429;-78
2023/08/30 06:45:00;;;;;;;33.30;22.80;;;15.90;71.60;;;;;;5059374;28;20420;-78
2023/08/30 06:47:26;;;;;;;29.30;22.40;;;16.00;69.60;;;;;;5061266;28;20389;-78
2023/08/30 06:49:51;;;;;;;30.55;22.05;;;16.10;68.20;;;;;;5060718;28;20385;-78
2023/08/30 06:52:17;;;;;;;33.43;21.27;;;16.00;67.60;;;;;;5056828;28;20405;-80
2023/08/30 06:54:42;;;;;;;74.70;55.63;;;15.90;68.00;;;;;;5037348;28;20400;-77
2023/08/30 06:57:08;;;;;;;96.65;68.90;;;16.00;68.70;;;;;;5059211;28;20386;-77
2023/08/30 06:59:34;;;;;;;65.68;48.92;;;16.10;68.90;;;;;;5063013;28;20409;-78
2023/08/30 07:02:00;;;;;;;33.17;23.42;;;16.30;67.50;;;;;;5061984;28;20897;-77
2023/08/30 07:04:25;;;;;;;49.70;34.83;;;16.40;64.10;;;;;;5066195;28;20386;-79
2023/08/30 07:06:52;;;;;;;41.63;27.03;;;16.50;63.50;;;;;;5049224;28;20404;-78
2023/08/30 07:09:17;;;;;;;28.25;19.70;;;16.70;62.20;;;;;;5046973;28;20432;-78
2023/08/30 07:11:47;;;;;;;33.13;21.42;;;16.80;59.90;;;;;;5060352;28;20428;-78
2023/08/30 07:14:14;;;;;;;25.58;18.50;;;16.80;60.50;;;;;;5058462;28;20397;-77
2023/08/30 07:16:39;;;;;;;24.17;18.83;;;16.80;58.80;;;;;;5059254;28;20852;-78
2023/08/30 07:19:05;;;;;;;28.00;18.17;;;17.00;58.50;;;;;;5038022;28;20393;-78
2023/08/30 07:21:31;;;;;;;24.77;18.55;;;17.10;57.80;;;;;;5055467;28;20377;-77
2023/08/30 07:23:56;;;;;;;23.80;17.20;;;17.10;55.40;;;;;;5059844;28;20627;-79
2023/08/30 07:26:22;;;;;;;31.70;17.52;;;17.20;54.90;;;;;;5059948;28;20874;-78
2023/08/30 07:28:48;;;;;;;24.20;17.80;;;17.30;53.90;;;;;;5064400;28;20390;-78
2023/08/30 07:31:15;;;;;;;28.27;17.70;;;17.30;52.20;;;;;;5071074;28;20405;-78
2023/08/30 07:33:41;;;;;;;27.70;18.20;;;17.30;53.10;;;;;;5063422;28;20392;-78
2023/08/30 07:36:08;;;;;;;32.30;18.00;;;17.40;52.30;;;;;;5036185;28;20390;-77
2023/08/30 07:38:34;;;;;;;27.95;17.90;;;17.50;51.90;;;;;;5052801;28;20427;-77
2023/08/30 07:41:00;;;;;;;27.10;17.27;;;17.60;50.90;;;;;;5054157;28;20392;-77
2023/08/30 07:43:26;;;;;;;21.02;16.50;;;17.70;48.80;;;;;;5059223;28;20467;-77
2023/08/30 07:45:51;;;;;;;35.00;17.65;;;17.80;48.50;;;;;;5058425;28;20378;-78
2023/08/30 07:48:17;;;;;;;23.53;16.80;;;18.00;46.70;;;;;;5057766;28;20999;-78
2023/08/30 07:50:43;;;;;;;22.67;16.07;;;18.10;46.20;;;;;;5056373;28;20378;-78
2023/08/30 07:53:09;;;;;;;21.70;15.30;;;18.10;44.90;;;;;;5057351;28;20501;-78
2023/08/30 07:55:35;;;;;;;26.13;15.30;;;18.30;44.20;;;;;;5040742;28;20398;-76
2023/08/30 07:58:02;;;;;;;19.83;15.20;;;18.50;42.50;;;;;;5034979;28;20385;-77
2023/08/30 08:00:28;;;;;;;21.92;14.10;;;18.70;41.70;;;;;;5033976;28;20386;-77
2023/08/30 08:02:54;;;;;;;21.95;13.63;;;19.10;40.10;;;;;;5052844;28;20388;-78
2023/08/30 08:05:19;;;;;;;23.42;13.10;;;19.40;38.80;;;;;;5051553;28;20435;-77
2023/08/30 08:07:45;;;;;;;21.57;12.53;;;19.70;35.50;;;;;;5052371;28;20484;-78
2023/08/30 08:10:10;;;;;;;15.60;11.37;;;20.00;34.80;;;;;;5056434;28;20408;-78
2023/08/30 08:12:36;;;;;;;25.95;11.07;;;20.20;34.40;;;;;;5038168;28;20759;-78
2023/08/30 08:15:03;;;;;;;13.85;10.30;;;20.50;32.80;;;;;;5037989;28;20408;-78
2023/08/30 08:17:29;;;;;;;15.15;10.23;;;20.50;30.30;;;;;;5056703;28;20894;-77
2023/08/30 08:19:55;;;;;;;13.82;9.50;;;20.50;30.80;;;;;;5054274;28;20392;-77
2023/08/30 08:22:20;;;;;;;12.15;8.50;;;20.50;30.40;;;;;;5055835;28;20385;-78
2023/08/30 08:24:46;;;;;;;16.47;8.10;;;20.50;29.20;;;;;;5053466;28;20414;-77
2023/08/30 08:27:12;;;;;;;16.63;8.47;;;20.40;29.00;;;;;;5051266;28;20953;-78
2023/08/30 08:29:38;;;;;;;13.75;7.57;;;20.60;28.10;;;;;;5054105;28;20382;-78
2023/08/30 08:32:04;;;;;;;14.80;6.70;;;20.80;26.60;;;;;;5055089;28;20400;-78
2023/08/30 08:34:29;;;;;;;13.37;6.87;;;21.00;26.40;;;;;;5052476;28;20473;-77
2023/08/30 08:36:56;;;;;;;12.95;7.22;;;21.10;25.90;;;;;;5054292;28;20381;-77
2023/08/30 08:39:21;;;;;;;11.05;6.78;;;21.10;25.40;;;;;;5053244;28;20739;-76
2023/08/30 08:41:47;;;;;;;10.05;6.18;;;21.30;25.80;;;;;;5058966;28;20392;-78
2023/08/30 08:44:14;;;;;;;12.13;6.82;;;21.50;24.70;;;;;;5062740;28;21027;-78
2023/08/30 08:46:41;;;;;;;10.40;6.20;;;21.80;23.00;;;;;;5063365;28;20449;-78
2023/08/30 08:49:13;;;;;;;8.68;5.93;;;22.10;22.80;;;;;;5061282;28;20393;-77
2023/08/30 08:51:39;;;;;;;17.95;6.20;;;22.40;22.30;;;;;;5057075;28;20889;-77
2023/08/30 08:54:06;;;;;;;12.97;5.53;;;22.70;21.20;;;;;;5057485;28;20385;-77
2023/08/30 08:56:33;;;;;;;10.50;5.88;;;22.80;20.90;;;;;;5060046;28;20381;-77
2023/08/30 08:58:59;;;;;;;10.10;6.30;;;23.00;19.70;;;;;;5039783;28;20382;-78
2023/08/30 09:01:25;;;;;;;10.63;5.90;;;22.90;20.20;;;;;;5057398;28;20873;-77
2023/08/30 09:03:51;;;;;;;13.00;5.43;;;22.70;21.60;;;;;;5060555;28;20743;-77
2023/08/30 09:06:17;;;;;;;11.20;5.87;;;22.70;20.50;;;;;;5068270;28;20393;-78
2023/08/30 09:08:43;;;;;;;9.48;5.57;;;22.20;23.00;;;;;;5068122;28;20435;-78
2023/08/30 09:11:08;;;;;;;10.90;5.80;;;21.50;26.00;;;;;;5061880;28;20393;-77
2023/08/30 09:13:35;;;;;;;13.27;5.83;;;21.00;27.30;;;;;;5046194;28;20488;-78
2023/08/30 09:16:02;;;;;;;12.43;6.03;;;20.40;30.30;;;;;;5058338;28;20395;-77
2023/08/30 09:18:28;;;;;;;7.70;5.43;;;20.30;30.40;;;;;;5065365;28;20438;-78
2023/08/30 09:21:10;;;;;;;11.90;6.20;;;20.20;31.10;;;;;;5065750;28;20408;-78
2023/08/30 09:23:37;;;;;;;12.25;5.70;;;20.20;31.60;;;;;;5064332;28;20439;-78
2023/08/30 09:26:03;;;;;;;10.40;6.07;;;20.20;32.30;;;;;;5064890;28;20435;-77
2023/08/30 09:28:29;;;;;;;13.15;6.20;;;20.30;32.00;;;;;;5065410;28;20392;-77
2023/08/30 09:31:00;;;;;;;11.43;5.43;;;20.40;32.00;;;;;;5061272;28;20409;-77
2023/08/30 09:33:33;;;;;;;11.30;6.28;;;20.50;31.50;;;;;;5057903;28;20405;-76
2023/08/30 09:35:59;;;;;;;7.68;5.50;;;20.40;33.10;;;;;;5041783;28;20381;-77
2023/08/30 09:38:25;;;;;;;10.23;5.83;;;20.60;33.00;;;;;;5058868;28;20484;-77
2023/08/30 09:40:51;;;;;;;20.90;6.55;;;20.60;32.50;;;;;;5054398;28;20781;-77
2023/08/30 09:43:23;;;;;;;17.60;6.50;;;20.60;32.00;;;;;;5054775;28;20388;-77
2023/08/30 09:45:50;;;;;;;15.20;6.70;;;20.70;32.00;;;;;;5059713;28;20397;-77
2023/08/30 09:48:21;;;;;;;17.38;6.30;;;20.70;31.40;;;;;;5059322;28;20412;-77
2023/08/30 09:50:50;;;;;;;17.00;7.13;;;20.60;31.70;;;;;;5058685;28;20386;-77
2023/08/30 09:53:19;;;;;;;15.40;6.10;;;20.70;31.80;;;;;;5063372;28;20409;-77
2023/08/30 09:55:46;;;;;;;10.77;6.43;;;20.40;31.50;;;;;;5057571;28;20382;-78
2023/08/30 09:58:12;;;;;;;13.55;6.30;;;20.40;33.10;;;;;;5056215;28;20541;-78
2023/08/30 10:00:37;;;;;;;10.63;6.20;;;20.10;34.40;;;;;;5055310;28;20492;-77
2023/08/30 10:03:04;;;;;;;14.80;6.97;;;19.80;35.70;;;;;;5055547;28;20385;-76
2023/08/30 10:05:30;;;;;;;9.48;6.30;;;19.70;36.40;;;;;;5054707;28;20396;-77
2023/08/30 10:07:57;;;;;;;14.25;6.68;;;19.50;37.40;;;;;;5053932;28;20723;-77
2023/08/30 10:10:23;;;;;;;9.97;6.13;;;19.50;37.70;;;;;;5060870;28;20389;-78
2023/08/30 10:12:49;;;;;;;10.38;6.47;;;19.50;37.30;;;;;;5058738;28;20463;-78
2023/08/30 10:15:15;;;;;;;10.57;6.43;;;19.40;38.70;;;;;;5059156;28;20409;-78
2023/08/30 10:17:45;;;;;;;10.20;6.60;;;19.30;39.80;;;;;;5054015;28;20389;-77
2023/08/30 10:20:12;;;;;;;14.82;6.28;;;19.30;38.30;;;;;;5035409;28;20476;-77
2023/08/30 10:22:39;;;;;;;10.32;5.93;;;19.30;38.40;;;;;;5056874;28;20385;-77
2023/08/30 10:25:11;;;;;;;10.23;6.22;;;19.20;38.00;;;;;;5036691;28;20439;-77
2023/08/30 10:27:41;;;;;;;12.85;6.35;;;19.20;39.00;;;;;;5057126;28;20409;-77
2023/08/30 10:30:10;;;;;;;9.85;5.57;;;19.20;38.30;;;;;;5058402;28;20385;-77
2023/08/30 10:32:40;;;;;;;11.60;5.80;;;19.10;37.40;;;;;;5062941;28;20410;-78
2023/08/30 10:35:06;;;;;;;12.68;5.60;;;19.10;37.30;;;;;;5059925;28;20416;-78
2023/08/30 10:37:31;;;;;;;13.07;4.95;;;19.20;36.60;;;;;;5066882;28;20585;-78
2023/08/30 10:40:03;;;;;;;7.60;4.30;;;19.10;36.40;;;;;;5051474;28;20386;-77
2023/08/30 10:42:29;;;;;;;8.95;4.53;;;19.10;35.10;;;;;;5064134;28;20525;-77
2023/08/30 10:45:06;;;;;;;9.90;4.40;;;19.00;36.10;;;;;;5040589;28;20424;-77
2023/08/30 10:47:37;;;;;;;8.98;4.20;;;18.90;35.80;;;;;;5057844;28;20408;-78
2023/08/30 10:50:09;;;;;;;12.77;4.50;;;18.60;39.40;;;;;;5057032;28;20393;-76
2023/08/30 10:52:35;;;;;;;9.77;5.90;;;18.40;43.70;;;;;;5054938;28;20463;-77
2023/08/30 10:55:11;;;;;;;9.57;6.00;;;18.00;50.80;;;;;;5037431;28;20766;-77
2023/08/30 10:57:41;;;;;;;10.10;6.35;;;17.60;57.20;;;;;;5055245;28;20834;-77
2023/08/30 11:00:18;;;;;;;10.85;6.78;;;17.30;64.60;;;;;;5053820;28;20381;-77
2023/08/30 11:02:49;;;;;;;8.45;5.88;;;17.20;68.60;;;;;;5053997;28;20388;-78
2023/08/30 11:05:23;;;;;;;8.07;5.47;;;17.20;64.70;;;;;;5056608;28;20396;-78
2023/08/30 11:07:50;;;;;;;8.85;5.60;;;17.20;64.60;;;;;;5036407;28;20862;-77
2023/08/30 11:10:16;;;;;;;8.30;4.70;;;17.30;69.10;;;;;;5055718;28;20428;-78
2023/08/30 11:12:44;;;;;;;8.93;5.10;;;17.30;62.70;;;;;;5054538;28;20401;-77
2023/08/30 11:15:10;;;;;;;13.32;5.18;;;17.30;66.50;;;;;;5056136;28;20420;-78
2023/08/30 11:17:36;;;;;;;8.43;5.47;;;17.40;62.80;;;;;;5058306;28;20419;-77
2023/08/30 11:20:13;;;;;;;7.77;5.27;;;17.40;66.40;;;;;;5056280;28;20855;-77
2023/08/30 11:22:43;;;;;;;7.47;5.28;;;17.60;60.80;;;;;;5055035;28;20389;-77
2023/08/30 11:25:10;;;;;;;7.80;5.20;;;17.70;64.50;;;;;;5055127;28;20394;-78
2023/08/30 11:27:37;;;;;;;7.68;4.22;;;17.80;56.90;;;;;;5053600;28;20850;-78
2023/08/30 11:30:05;;;;;;;7.13;5.27;;;17.90;58.00;;;;;;5038090;28;20401;-78
2023/08/30 11:32:34;;;;;;;8.35;5.60;;;17.90;57.40;;;;;;5059927;28;20401;-78
2023/08/30 11:35:00;;;;;;;9.00;4.80;;;17.80;59.20;;;;;;5039965;28;20886;-78
2023/08/30 11:37:27;;;;;;;8.20;5.50;;;17.80;60.30;;;;;;5036107;28;20392;-77
2023/08/30 11:39:55;;;;;;;6.95;4.90;;;18.00;60.00;;;;;;5054722;28;20385;-78
2023/08/30 11:42:21;;;;;;;6.72;4.80;;;17.90;56.50;;;;;;5055709;28;20415;-77
2023/08/30 11:44:47;;;;;;;12.37;5.60;;;18.00;58.90;;;;;;5057409;28;20385;-77
2023/08/30 11:47:39;;;;;;;9.18;5.47;;;18.10;58.40;;;;;;5056586;28;20389;-78
2023/08/30 11:50:06;;;;;;;7.22;5.32;;;18.10;59.10;;;;;;5047738;28;20396;-77
2023/08/30 11:52:32;;;;;;;7.25;5.95;;;18.10;59.60;;;;;;5055111;28;20408;-78
2023/08/30 11:54:58;;;;;;;8.20;5.80;;;18.10;57.30;;;;;;5053713;28;20392;-78
2023/08/30 11:57:25;;;;;;;8.55;5.65;;;17.90;56.60;;;;;;5052995;28;20390;-76
2023/08/30 11:59:51;;;;;;;7.03;5.40;;;17.90;60.30;;;;;;5051836;28;20871;-77
2023/08/30 12:02:18;;;;;;;8.00;5.60;;;17.80;58.80;;;;;;5034023;28;20393;-77
2023/08/30 12:04:45;;;;;;;7.07;5.70;;;17.80;59.90;;;;;;5050854;28;20408;-77
2023/08/30 12:07:22;;;;;;;6.70;5.20;;;17.70;60.50;;;;;;5053209;28;20456;-77
2023/08/30 12:09:48;;;;;;;8.52;5.22;;;17.70;61.60;;;;;;5053471;28;20563;-76
2023/08/30 12:12:13;;;;;;;7.37;4.93;;;17.80;60.30;;;;;;5053057;28;20473;-77
2023/08/30 12:14:39;;;;;;;7.33;5.50;;;17.80;61.00;;;;;;5055251;28;20400;-77
2023/08/30 12:17:05;;;;;;;7.90;5.32;;;17.80;61.60;;;;;;5055497;28;20381;-77
2023/08/30 12:19:34;;;;;;;8.55;5.28;;;17.90;61.90;;;;;;5054913;28;20739;-77
2023/08/30 12:22:07;;;;;;;7.28;5.60;;;18.10;60.80;;;;;;5052261;28;20431;-77
2023/08/30 12:24:45;;;;;;;8.45;5.22;;;18.30;59.90;;;;;;5053130;28;20389;-77
2023/08/30 12:27:11;;;;;;;6.50;5.13;;;18.70;57.80;;;;;;5051744;28;20389;-77
2023/08/30 12:29:37;;;;;;;5.23;4.73;;;18.80;56.80;;;;;;5051492;28;20381;-77